createdAt,value
2022-09-20T00:00:34.001Z,2.65
2022-09-20T00:04:35.461Z,2.22
2022-09-20T00:08:37.552Z,2.40
2022-09-20T00:12:39.001Z,2.05
2022-09-20T00:16:41.160Z,2.20
2022-09-20T00:20:46.557Z,3.35
2022-09-20T00:24:49.135Z,2.63
2022-09-20T00:28:51.939Z,2.85
2022-09-20T00:32:53.366Z,2.65
2022-09-20T00:36:54.779Z,2.58
2022-09-20T00:40:56.173Z,2.53
2022-09-20T00:45:02.008Z,2.58
2022-09-20T00:49:06.719Z,2.65
2022-09-20T00:53:12.637Z,3.10
2022-09-20T00:57:14.074Z,2.75
2022-09-20T01:01:16.413Z,2.15
2022-09-20T01:05:18.934Z,2.28
2022-09-20T01:09:20.325Z,2.63
2022-09-20T01:13:21.735Z,2.58
2022-09-20T01:17:25.483Z,3.53
2022-09-20T01:21:27.584Z,2.30
2022-09-20T01:25:42.113Z,2.60
2022-09-20T01:30:00.295Z,2.10
2022-09-20T01:34:11.670Z,2.20
2022-09-20T01:38:36.684Z,2.65
2022-09-20T01:42:43.549Z,2.22
2022-09-20T01:46:45.919Z,2.15
2022-09-20T01:51:10.728Z,2.58
2022-09-20T01:55:43.762Z,2.50
2022-09-20T02:00:11.279Z,3.05
2022-09-20T02:04:30.233Z,2.15
2022-09-20T02:08:41.477Z,1.83
2022-09-20T02:12:56.766Z,2.28
2022-09-20T02:17:08.365Z,2.30
2022-09-20T02:21:34.459Z,2.10
2022-09-20T02:25:46.509Z,2.85
2022-09-20T02:29:58.193Z,2.17
2022-09-20T02:34:18.599Z,2.17
2022-09-20T02:38:33.387Z,2.20
2022-09-20T02:42:41.415Z,2.03
2022-09-20T02:46:54.002Z,2.03
2022-09-20T02:51:13.926Z,2.40
2022-09-20T02:55:25.280Z,2.10
2022-09-20T02:59:44.601Z,2.67
2022-09-20T03:04:02.623Z,2.40
2022-09-20T03:08:33.941Z,3.55
2022-09-20T03:12:55.315Z,2.40
2022-09-20T03:17:06.840Z,2.22
2022-09-20T03:21:22.703Z,2.55
2022-09-20T03:25:49.779Z,2.72
2022-09-20T03:30:24.584Z,2.30
2022-09-20T03:34:43.492Z,3.03
2022-09-20T03:39:08.150Z,2.50
2022-09-20T03:43:37.460Z,2.20
2022-09-20T03:47:54.288Z,2.53
2022-09-20T03:52:26.851Z,2.47
2022-09-20T03:56:47.250Z,2.45
2022-09-20T04:01:28.356Z,2.38
2022-09-20T04:05:50.916Z,2.30
2022-09-20T04:10:18.710Z,1.88
2022-09-20T04:14:30.256Z,2.88
2022-09-20T04:18:40.407Z,2.60
2022-09-20T04:22:43.485Z,2.22
2022-09-20T04:26:48.681Z,4.40
2022-09-20T04:30:51.901Z,2.00
2022-09-20T04:35:32.625Z,2.70
2022-09-20T04:39:48.212Z,2.78
2022-09-20T04:43:55.484Z,2.47
2022-09-20T04:48:16.603Z,3.10
2022-09-20T04:52:36.908Z,4.10
2022-09-20T04:56:57.240Z,2.95
2022-09-20T05:00:58.718Z,2.60
2022-09-20T05:05:38.754Z,3.00
2022-09-20T05:10:15.391Z,3.33
2022-09-20T05:14:58.961Z,3.47
2022-09-20T05:19:12.296Z,3.25
2022-09-20T05:23:26.767Z,4.57
2022-09-20T05:27:42.719Z,4.25
2022-09-20T05:32:18.438Z,4.97
2022-09-20T05:36:34.263Z,3.95
2022-09-20T05:41:14.201Z,3.63
2022-09-20T05:45:47.515Z,5.40
2022-09-20T05:50:16.711Z,4.90
2022-09-20T05:54:25.909Z,5.68
2022-09-20T05:58:38.946Z,5.75
2022-09-20T06:02:48.665Z,6.25
2022-09-20T06:06:58.679Z,4.65
2022-09-20T06:11:18.413Z,5.75
2022-09-20T06:15:25.863Z,4.50
2022-09-20T06:19:45.920Z,6.90
2022-09-20T06:23:47.464Z,4.45
2022-09-20T06:28:00.405Z,4.68
2022-09-20T06:32:02.073Z,4.07
2022-09-20T06:36:38.137Z,4.10
2022-09-20T06:41:03.578Z,4.25
2022-09-20T06:45:05.430Z,3.33
2022-09-20T06:49:09.593Z,3.90
2022-09-20T06:53:26.507Z,3.85
2022-09-20T06:57:35.005Z,3.50
2022-09-20T07:01:36.917Z,3.40
2022-09-20T07:05:38.876Z,3.45
2022-09-20T07:09:40.259Z,3.72
2022-09-20T07:13:45.769Z,3.72
2022-09-20T07:17:49.089Z,5.22
2022-09-20T07:21:50.488Z,4.57
2022-09-20T07:25:52.258Z,4.20
2022-09-20T07:29:53.640Z,4.80
2022-09-20T07:33:55.482Z,4.65
2022-09-20T07:37:59.856Z,3.20
2022-09-20T07:42:06.065Z,3.90
2022-09-20T07:46:07.497Z,4.82
2022-09-20T07:50:11.214Z,3.35
2022-09-20T07:54:12.703Z,3.10
2022-09-20T07:58:14.100Z,3.38
2022-09-20T08:02:16.615Z,3.13
2022-09-20T08:06:18.783Z,2.97
2022-09-20T08:10:20.286Z,2.55
2022-09-20T08:14:22.283Z,2.72
2022-09-20T08:18:25.547Z,2.50
2022-09-20T08:22:26.929Z,1.88
2022-09-20T08:26:29.297Z,2.40
2022-09-20T08:30:31.104Z,2.45
2022-09-20T08:34:32.691Z,2.28
2022-09-20T08:42:56.744Z,2.10
2022-09-20T08:47:06.156Z,2.25
2022-09-20T08:51:10.616Z,2.67
2022-09-20T08:55:21.117Z,2.58
2022-09-20T08:59:23.151Z,1.65
2022-09-20T09:03:26.102Z,1.95
2022-09-20T09:07:27.916Z,1.52
2022-09-20T09:11:29.422Z,1.38
2022-09-20T09:15:34.479Z,2.33
2022-09-20T09:19:51.335Z,1.60
2022-09-20T09:24:01.311Z,1.90
2022-09-20T09:28:08.847Z,2.10
2022-09-20T09:32:22.264Z,2.00
2022-09-20T09:36:25.698Z,2.45
2022-09-20T09:40:29.495Z,1.60
2022-09-20T09:44:35.545Z,1.52
2022-09-20T09:48:39.341Z,1.63
2022-09-20T09:52:41.762Z,1.30
2022-09-20T09:57:17.413Z,1.70
2022-09-20T10:01:55.797Z,1.38
2022-09-20T10:06:17.377Z,1.45
2022-09-20T10:10:32.431Z,4.63
2022-09-20T10:15:15.302Z,1.92
2022-09-20T10:19:38.712Z,2.22
2022-09-20T10:24:04.484Z,1.83
2022-09-20T10:28:21.663Z,1.98
2022-09-20T10:32:50.120Z,3.05
2022-09-20T10:36:58.775Z,1.63
2022-09-20T10:41:32.385Z,1.80
2022-09-20T10:50:29.158Z,2.15
2022-09-20T10:54:42.684Z,2.38
2022-09-20T10:59:05.357Z,1.98
2022-09-20T11:03:51.637Z,1.33
2022-09-20T11:08:12.013Z,1.38
2022-09-20T11:12:21.145Z,2.08
2022-09-20T11:16:26.367Z,1.30
2022-09-20T11:20:31.591Z,1.13
2022-09-20T11:24:43.197Z,1.27
2022-09-20T11:28:47.158Z,1.55
2022-09-20T11:32:53.694Z,1.70
2022-09-20T11:37:01.597Z,1.15
2022-09-20T11:45:15.957Z,1.48
2022-09-20T11:49:27.631Z,1.20
2022-09-20T11:53:55.296Z,1.52
2022-09-20T12:02:04.700Z,1.10
2022-09-20T12:06:24.827Z,1.65
2022-09-20T12:10:35.434Z,1.38
2022-09-20T12:14:36.892Z,1.45
2022-09-20T12:18:53.958Z,1.13
2022-09-20T12:23:33.716Z,1.35
2022-09-20T12:27:35.130Z,1.83
2022-09-20T12:31:37.913Z,1.65
2022-09-20T12:35:59.799Z,1.48
2022-09-20T12:40:01.375Z,1.70
2022-09-20T12:44:06.599Z,1.80
2022-09-20T12:48:18.456Z,1.83
2022-09-20T12:52:48.121Z,2.38
2022-09-20T12:56:49.515Z,1.67
2022-09-20T13:01:14.353Z,1.75
2022-09-20T13:05:32.727Z,1.60
2022-09-20T13:09:34.673Z,2.17
2022-09-20T13:13:55.036Z,1.45
2022-09-20T13:18:00.009Z,1.50
2022-09-20T13:22:17.367Z,1.70
2022-09-20T13:26:27.486Z,1.40
2022-09-20T13:30:32.835Z,1.75
2022-09-20T13:34:34.232Z,2.20
2022-09-20T13:38:38.341Z,1.75
2022-09-20T13:42:39.798Z,1.80
2022-09-20T13:46:44.685Z,1.67
2022-09-20T13:50:50.144Z,2.40
2022-09-20T13:54:55.366Z,2.35
2022-09-20T13:59:00.080Z,1.42
2022-09-20T14:03:01.535Z,1.40
2022-09-20T14:07:06.802Z,1.73
2022-09-20T14:11:12.284Z,1.67
2022-09-20T14:15:15.292Z,2.28
2022-09-20T14:19:19.190Z,1.65
2022-09-20T14:23:22.630Z,2.08
2022-09-20T14:27:24.025Z,1.65
2022-09-20T14:31:27.585Z,1.83
2022-09-20T14:35:29.218Z,1.67
2022-09-20T14:39:30.684Z,1.38
2022-09-20T14:43:34.675Z,1.40
2022-09-20T14:47:38.905Z,1.55
2022-09-20T14:51:40.497Z,1.73
2022-09-20T14:55:56.877Z,1.45
2022-09-20T14:59:59.163Z,1.30
2022-09-20T15:04:07.128Z,1.58
2022-09-20T15:08:12.103Z,1.60
2022-09-20T15:12:17.888Z,1.30
2022-09-20T15:16:20.504Z,1.50
2022-09-20T15:20:24.497Z,1.58
2022-09-20T15:24:26.414Z,1.45
2022-09-20T15:28:27.906Z,1.17
2022-09-20T15:32:30.404Z,1.23
2022-09-20T15:36:32.166Z,1.02
2022-09-20T15:40:34.454Z,0.88
2022-09-20T15:44:36.293Z,1.20
2022-09-20T15:48:37.897Z,1.35
2022-09-20T15:52:40.654Z,1.20
2022-09-20T15:56:42.086Z,1.75
2022-09-20T16:00:45.922Z,1.48
2022-09-20T16:04:47.682Z,1.35
2022-09-20T16:08:49.581Z,1.30
2022-09-20T16:12:50.963Z,1.25
2022-09-20T16:16:52.411Z,1.60
2022-09-20T16:20:53.800Z,1.48
2022-09-20T16:24:55.773Z,1.65
2022-09-20T16:28:57.770Z,1.20
2022-09-20T16:33:05.371Z,1.52
2022-09-20T16:37:11.864Z,1.58
2022-09-20T16:41:13.216Z,1.42
2022-09-20T16:45:15.861Z,2.42
2022-09-20T16:49:17.685Z,2.40
2022-09-20T16:53:19.072Z,1.63
2022-09-20T16:57:22.352Z,1.85
2022-09-20T17:01:23.793Z,1.52
2022-09-20T17:05:25.492Z,1.63
2022-09-20T17:09:28.304Z,1.50
2022-09-20T17:13:33.042Z,1.85
2022-09-20T17:17:34.660Z,1.52
2022-09-20T17:21:39.515Z,1.90
2022-09-20T17:25:44.527Z,2.00
2022-09-20T17:29:47.572Z,1.85
2022-09-20T17:33:49.029Z,1.65
2022-09-20T17:37:50.806Z,2.53
2022-09-20T17:41:52.709Z,1.65
2022-09-20T17:45:54.162Z,1.98
2022-09-20T17:49:55.538Z,1.73
2022-09-20T17:53:57.378Z,1.88
2022-09-20T17:57:58.799Z,2.35
2022-09-20T18:02:00.193Z,2.03
2022-09-20T18:06:12.196Z,1.95
2022-09-20T18:10:15.645Z,1.88
2022-09-20T18:14:20.055Z,2.47
2022-09-20T18:18:21.593Z,2.25
2022-09-20T18:22:22.949Z,1.75
2022-09-20T18:26:27.530Z,2.15
2022-09-20T18:30:29.707Z,2.00
2022-09-20T18:34:33.498Z,2.20
2022-09-20T18:38:35.042Z,2.47
2022-09-20T18:42:36.531Z,2.70
2022-09-20T18:46:38.184Z,2.33
2022-09-20T18:50:39.620Z,2.65
2022-09-20T18:54:41.129Z,3.33
2022-09-20T18:58:44.681Z,3.25
2022-09-20T19:03:01.821Z,3.15
2022-09-20T19:07:08.695Z,3.90
2022-09-20T19:11:13.353Z,3.58
2022-09-20T19:15:35.969Z,2.88
2022-09-20T19:19:48.841Z,2.65
2022-09-20T19:24:28.221Z,4.07
2022-09-20T19:28:30.238Z,5.68
2022-09-20T19:32:33.106Z,4.30
2022-09-20T19:36:49.712Z,4.60
2022-09-20T19:41:10.788Z,4.57
2022-09-20T19:45:16.338Z,5.28
2022-09-20T19:49:32.044Z,4.00
2022-09-20T19:53:34.117Z,4.20
2022-09-20T19:57:41.918Z,4.85
2022-09-20T20:01:43.478Z,4.90
2022-09-20T20:05:58.470Z,4.25
2022-09-20T20:10:11.753Z,4.57
2022-09-20T20:14:43.140Z,4.55
2022-09-20T20:19:06.733Z,3.67
2022-09-20T20:23:32.558Z,4.68
2022-09-20T20:27:34.113Z,4.05
2022-09-20T20:31:35.816Z,3.50
2022-09-20T20:35:37.415Z,4.45
2022-09-20T20:39:38.798Z,6.22
2022-09-20T20:43:42.252Z,5.28
2022-09-20T20:47:44.241Z,5.15
2022-09-20T20:51:45.791Z,4.25
2022-09-20T20:55:47.168Z,4.05
2022-09-20T20:59:48.565Z,4.13
2022-09-20T21:03:52.294Z,3.65
2022-09-20T21:07:54.757Z,3.35
2022-09-20T21:11:56.110Z,3.55
2022-09-20T21:16:15.308Z,3.10
2022-09-20T21:20:16.677Z,3.45
2022-09-20T21:24:18.142Z,3.28
2022-09-20T21:28:19.964Z,4.13
2022-09-20T21:32:21.340Z,3.45
2022-09-20T21:36:25.059Z,3.60
2022-09-20T21:40:26.468Z,3.58
2022-09-20T21:44:27.868Z,3.78
2022-09-20T21:48:29.653Z,4.00
2022-09-20T21:52:31.074Z,4.28
2022-09-20T21:56:34.562Z,3.80
2022-09-20T22:00:36.323Z,3.53
2022-09-20T22:04:37.704Z,3.47
2022-09-20T22:08:42.240Z,2.95
2022-09-20T22:12:43.565Z,4.15
2022-09-20T22:16:46.337Z,4.13
2022-09-20T22:20:47.919Z,3.55
2022-09-20T22:24:49.419Z,4.35
2022-09-20T22:28:51.679Z,3.22
2022-09-20T22:32:53.037Z,3.35
2022-09-20T22:36:54.391Z,3.08
2022-09-20T22:40:57.374Z,2.95
2022-09-20T22:44:59.497Z,3.50
2022-09-20T22:49:01.121Z,3.28
2022-09-20T22:53:02.499Z,3.17
2022-09-20T22:57:04.026Z,3.17
2022-09-20T23:01:15.651Z,3.30
2022-09-20T23:05:18.173Z,2.65
2022-09-20T23:09:19.604Z,3.15
2022-09-20T23:13:20.978Z,3.42
2022-09-20T23:17:22.394Z,3.30
2022-09-20T23:21:24.227Z,2.67
2022-09-20T23:25:25.584Z,3.45
2022-09-20T23:29:27.805Z,3.45
2022-09-20T23:33:29.193Z,3.65
2022-09-20T23:37:30.569Z,3.25
2022-09-20T23:41:31.936Z,2.05
2022-09-20T23:45:33.339Z,2.58
2022-09-20T23:49:36.720Z,3.17
2022-09-20T23:53:38.398Z,3.67
2022-09-20T23:57:39.800Z,2.90
